Time;durP1;ratioP1;P1;durP2;ratioP2;P2;SDS_P1;SDS_P2;PMS_P1;PMS_P2;Temp;Humidity;BMP_temperature;BMP_pressure;BME280_temperature;BME280_humidity;BME280_pressure;Samples;Min_cycle;Max_cycle;Signal;HPM_P1;HPM_P2
2022/03/01 00:02:15;;;;;;;0.80;0.43;;;-0.30;83.70;;;;;;4991632;28;20880;-73
2022/03/01 00:04:41;;;;;;;0.30;0.30;;;-0.40;84.00;;;;;;5000052;28;20185;-73
2022/03/01 00:07:07;;;;;;;2.57;0.40;;;-0.40;84.50;;;;;;4994237;28;20219;-72
2022/03/01 00:09:34;;;;;;;0.43;0.43;;;-0.40;84.50;;;;;;4993677;28;20182;-72
2022/03/01 00:12:00;;;;;;;0.63;0.63;;;-0.40;84.40;;;;;;4996603;28;20193;-72
2022/03/01 00:14:26;;;;;;;0.40;0.40;;;-0.40;84.60;;;;;;4994889;28;20185;-72
2022/03/01 00:16:51;;;;;;;0.40;0.40;;;-0.40;84.50;;;;;;4995926;28;20181;-72
2022/03/01 00:19:17;;;;;;;0.37;0.37;;;-0.40;84.70;;;;;;4998905;28;20192;-72
2022/03/01 00:21:43;;;;;;;2.63;0.70;;;-0.40;85.00;;;;;;4992751;28;20184;-72
2022/03/01 00:24:09;;;;;;;0.30;0.30;;;-0.50;84.80;;;;;;4992161;28;20213;-72
2022/03/01 00:26:34;;;;;;;0.53;0.53;;;-0.50;85.00;;;;;;4989860;28;20296;-73
2022/03/01 00:29:00;;;;;;;0.50;0.50;;;-0.60;85.10;;;;;;4991417;28;20185;-72
2022/03/01 00:31:26;;;;;;;1.07;0.40;;;-0.60;85.30;;;;;;4991808;28;20177;-73
2022/03/01 00:33:52;;;;;;;0.33;0.30;;;-0.70;85.30;;;;;;4992389;28;20186;-72
2022/03/01 00:36:18;;;;;;;1.40;0.80;;;-0.70;85.20;;;;;;4992957;28;20201;-72
2022/03/01 00:38:43;;;;;;;1.20;0.60;;;-0.80;85.70;;;;;;4992959;28;20283;-71
2022/03/01 00:41:09;;;;;;;0.50;0.50;;;-0.80;85.70;;;;;;4990762;28;20663;-72
2022/03/01 00:43:35;;;;;;;0.60;0.60;;;-0.80;85.70;;;;;;4995254;28;20275;-72
2022/03/01 00:46:01;;;;;;;0.43;0.43;;;-0.90;85.60;;;;;;4995772;28;20241;-72
2022/03/01 00:48:26;;;;;;;0.70;0.70;;;-0.90;85.60;;;;;;4994724;28;20216;-72
2022/03/01 00:50:52;;;;;;;1.90;0.80;;;-0.90;85.60;;;;;;4992711;28;20220;-72
2022/03/01 00:53:19;;;;;;;0.43;0.43;;;-0.90;85.40;;;;;;4993952;28;22019;-73
2022/03/01 00:55:44;;;;;;;1.03;0.50;;;-1.00;85.60;;;;;;4993013;28;20198;-73
2022/03/01 00:58:10;;;;;;;0.63;0.63;;;-1.00;85.50;;;;;;4997884;28;20182;-74
2022/03/01 01:00:36;;;;;;;0.37;0.37;;;-1.00;85.60;;;;;;4996708;28;20839;-73
2022/03/01 01:03:02;;;;;;;0.60;0.60;;;-1.00;85.50;;;;;;4996616;28;20194;-73
2022/03/01 01:05:28;;;;;;;1.27;1.27;;;-1.10;85.40;;;;;;4994800;28;20189;-73
2022/03/01 01:07:54;;;;;;;0.50;0.50;;;-1.10;85.30;;;;;;4997911;28;20213;-73
2022/03/01 01:10:21;;;;;;;0.50;0.50;;;-1.10;85.10;;;;;;4991964;28;20196;-73
2022/03/01 01:12:47;;;;;;;0.83;0.60;;;-1.10;84.80;;;;;;4998737;28;20194;-73
2022/03/01 01:15:15;;;;;;;0.43;0.43;;;-1.10;85.00;;;;;;4996135;28;20181;-73
2022/03/01 01:17:40;;;;;;;1.13;0.90;;;-1.10;85.00;;;;;;4991271;28;20193;-73
2022/03/01 01:20:08;;;;;;;0.67;0.57;;;-1.10;85.30;;;;;;4998554;28;20189;-73
2022/03/01 01:22:40;;;;;;;1.90;0.63;;;-1.10;85.50;;;;;;4994920;28;20195;-74
2022/03/01 01:25:10;;;;;;;0.87;0.80;;;-1.10;85.70;;;;;;4994191;28;20279;-73
2022/03/01 01:27:43;;;;;;;0.53;0.53;;;-1.10;85.80;;;;;;5000221;28;20234;-74
2022/03/01 01:30:15;;;;;;;0.60;0.60;;;-1.20;85.60;;;;;;4994994;28;20268;-73
2022/03/01 01:32:42;;;;;;;13.20;0.60;;;-1.30;85.60;;;;;;4997669;28;20186;-73
2022/03/01 01:35:11;;;;;;;1.03;1.03;;;-1.30;85.50;;;;;;4994261;28;20619;-73
2022/03/01 01:37:37;;;;;;;0.80;0.80;;;-1.30;85.50;;;;;;4996315;28;20205;-73
2022/03/01 01:40:04;;;;;;;0.90;0.47;;;-1.30;85.40;;;;;;4998469;28;20266;-73
2022/03/01 01:42:30;;;;;;;0.40;0.40;;;-1.30;85.60;;;;;;4996227;28;20177;-73
2022/03/01 01:44:56;;;;;;;0.80;0.80;;;-1.40;85.60;;;;;;4995171;28;20188;-73
2022/03/01 01:47:21;;;;;;;0.40;0.40;;;-1.30;85.80;;;;;;4992344;28;20216;-73
2022/03/01 01:49:48;;;;;;;0.77;0.77;;;-1.40;86.10;;;;;;4997271;28;20201;-73
2022/03/01 01:52:14;;;;;;;0.50;0.50;;;-1.40;86.10;;;;;;4996723;28;20184;-72
2022/03/01 01:54:40;;;;;;;0.40;0.40;;;-1.40;86.10;;;;;;5000139;28;20930;-73
2022/03/01 01:57:17;;;;;;;0.47;0.47;;;-1.40;86.10;;;;;;4997871;28;20176;-73
2022/03/01 01:59:43;;;;;;;0.83;0.67;;;-1.40;86.10;;;;;;4997841;28;20178;-73
2022/03/01 02:02:14;;;;;;;1.40;0.60;;;-1.50;86.20;;;;;;4994682;28;20684;-73
2022/03/01 02:04:40;;;;;;;1.40;0.40;;;-1.40;86.30;;;;;;4995475;28;21162;-73
2022/03/01 02:07:07;;;;;;;1.00;0.70;;;-1.50;86.50;;;;;;4993085;28;20218;-73
2022/03/01 02:09:33;;;;;;;0.50;0.50;;;-1.50;86.60;;;;;;4997745;28;20242;-72
2022/03/01 02:11:59;;;;;;;0.50;0.50;;;-1.50;86.60;;;;;;4996939;28;20801;-73
2022/03/01 02:14:25;;;;;;;0.40;0.40;;;-1.50;86.50;;;;;;4994108;28;20658;-72
2022/03/01 02:16:52;;;;;;;0.67;0.60;;;-1.50;86.50;;;;;;4995834;28;20195;-72
2022/03/01 02:19:18;;;;;;;0.53;0.53;;;-1.60;86.40;;;;;;4998107;28;20782;-73
2022/03/01 02:21:54;;;;;;;0.47;0.47;;;-1.60;86.70;;;;;;4994633;28;20187;-74
2022/03/01 02:24:21;;;;;;;0.50;0.50;;;-1.70;86.90;;;;;;5000099;28;20237;-73
2022/03/01 02:26:46;;;;;;;2.37;0.60;;;-1.70;87.10;;;;;;4994154;28;20219;-73
2022/03/01 02:29:13;;;;;;;0.30;0.30;;;-1.70;87.00;;;;;;4995045;28;20183;-72
2022/03/01 02:31:38;;;;;;;0.77;0.40;;;-1.70;87.10;;;;;;4997233;28;20186;-72
2022/03/01 02:34:05;;;;;;;0.87;0.87;;;-1.80;87.20;;;;;;4994672;28;20184;-72
2022/03/01 02:36:31;;;;;;;0.53;0.53;;;-1.80;87.50;;;;;;4993962;28;20339;-72
2022/03/01 02:38:57;;;;;;;0.73;0.60;;;-1.80;87.70;;;;;;4993196;28;20180;-72
2022/03/01 02:41:25;;;;;;;1.50;0.50;;;-1.80;87.70;;;;;;4999017;28;20217;-72
2022/03/01 02:43:51;;;;;;;1.03;0.60;;;-1.90;87.70;;;;;;4993420;28;20175;-72
2022/03/01 02:46:17;;;;;;;0.30;0.30;;;-1.90;87.60;;;;;;4999555;28;20589;-72
2022/03/01 02:48:43;;;;;;;3.00;0.67;;;-1.90;87.60;;;;;;4996736;28;20199;-73
2022/03/01 02:51:08;;;;;;;0.20;0.20;;;-1.90;87.60;;;;;;4994394;28;20623;-72
2022/03/01 02:53:36;;;;;;;0.57;0.57;;;-1.90;87.60;;;;;;4996091;28;20659;-72
2022/03/01 02:56:03;;;;;;;0.50;0.50;;;-1.90;87.80;;;;;;4995548;28;20749;-72
2022/03/01 02:58:29;;;;;;;0.40;0.40;;;-1.90;87.30;;;;;;4994674;28;20227;-72
2022/03/01 03:00:54;;;;;;;0.40;0.30;;;-1.90;86.70;;;;;;4991195;28;20213;-72
2022/03/01 03:03:20;;;;;;;0.30;0.30;;;-1.90;86.40;;;;;;4991496;28;20173;-72
2022/03/01 03:05:46;;;;;;;2.27;0.63;;;-1.90;86.50;;;;;;4995554;28;20196;-71
2022/03/01 03:08:12;;;;;;;0.10;0.10;;;-1.90;86.50;;;;;;4997857;28;20724;-72
2022/03/01 03:10:37;;;;;;;0.23;0.23;;;-1.90;86.40;;;;;;4997033;28;20784;-73
2022/03/01 03:13:04;;;;;;;0.37;0.37;;;-1.80;86.20;;;;;;4993533;28;20714;-73
2022/03/01 03:15:31;;;;;;;0.40;0.40;;;-1.80;86.20;;;;;;4991360;28;20219;-72
2022/03/01 03:17:57;;;;;;;0.87;0.50;;;-1.80;86.40;;;;;;4992326;28;20184;-73
2022/03/01 03:20:24;;;;;;;0.50;0.50;;;-1.80;86.50;;;;;;4992280;28;20179;-73
2022/03/01 03:22:50;;;;;;;0.23;0.23;;;-1.70;86.30;;;;;;4997795;28;20975;-73
2022/03/01 03:25:16;;;;;;;0.40;0.40;;;-1.70;86.30;;;;;;4996717;28;20184;-72
2022/03/01 03:27:42;;;;;;;1.57;0.60;;;-1.70;86.50;;;;;;4998092;28;20222;-73
2022/03/01 03:30:09;;;;;;;2.63;0.50;;;-1.70;86.80;;;;;;4995847;28;20909;-73
2022/03/01 03:32:35;;;;;;;2.83;0.60;;;-1.70;86.70;;;;;;4994473;28;20695;-73
2022/03/01 03:35:01;;;;;;;4.10;0.97;;;-1.70;86.70;;;;;;4993371;28;20181;-74
2022/03/01 03:37:27;;;;;;;0.50;0.50;;;-1.70;86.80;;;;;;4990165;28;20199;-73
2022/03/01 03:39:53;;;;;;;0.67;0.53;;;-1.70;87.00;;;;;;4994506;28;20186;-72
2022/03/01 03:42:19;;;;;;;0.50;0.50;;;-1.70;86.90;;;;;;4997601;28;20186;-73
2022/03/01 03:44:45;;;;;;;0.50;0.50;;;-1.70;87.00;;;;;;4995894;28;20665;-72
2022/03/01 03:47:11;;;;;;;1.40;0.90;;;-1.70;87.00;;;;;;4994500;28;20211;-72
2022/03/01 03:49:37;;;;;;;0.47;0.47;;;-1.70;87.00;;;;;;4992455;28;20196;-72
2022/03/01 03:52:05;;;;;;;0.60;0.60;;;-1.70;87.10;;;;;;4996273;28;20260;-72
2022/03/01 03:54:31;;;;;;;0.77;0.70;;;-1.70;87.20;;;;;;5011035;28;20188;-72
2022/03/01 03:56:57;;;;;;;0.83;0.60;;;-1.70;87.40;;;;;;4999426;28;20196;-72
2022/03/01 03:59:23;;;;;;;0.70;0.47;;;-1.80;87.60;;;;;;4992046;28;20188;-73
2022/03/01 04:01:49;;;;;;;0.70;0.70;;;-1.80;87.80;;;;;;4993641;28;20689;-73
2022/03/01 04:04:14;;;;;;;0.50;0.50;;;-1.80;87.80;;;;;;4990466;28;20676;-72
2022/03/01 04:06:40;;;;;;;0.57;0.50;;;-1.90;88.00;;;;;;4995096;28;20251;-72
2022/03/01 04:09:06;;;;;;;0.63;0.40;;;-1.90;88.10;;;;;;4992512;28;20191;-73
2022/03/01 04:11:33;;;;;;;0.33;0.33;;;-2.00;88.20;;;;;;4995419;28;20175;-73
2022/03/01 04:13:59;;;;;;;1.00;0.90;;;-2.00;88.30;;;;;;5011589;28;20191;-73
2022/03/01 04:16:27;;;;;;;1.27;1.20;;;-2.00;88.40;;;;;;4993106;28;20191;-72
2022/03/01 04:18:53;;;;;;;0.83;0.83;;;-2.00;88.40;;;;;;4992885;28;20200;-72
2022/03/01 04:21:19;;;;;;;1.23;1.20;;;-2.10;88.30;;;;;;4990824;28;20192;-73
2022/03/01 04:23:45;;;;;;;0.73;0.47;;;-2.10;88.30;;;;;;4994661;28;20200;-72
2022/03/01 04:26:11;;;;;;;1.33;1.27;;;-2.10;88.30;;;;;;4992941;28;20189;-72
2022/03/01 04:28:37;;;;;;;0.90;0.90;;;-2.20;88.40;;;;;;4992702;28;20227;-74
2022/03/01 04:31:02;;;;;;;0.90;0.90;;;-2.20;88.40;;;;;;4992247;28;20186;-73
2022/03/01 04:33:28;;;;;;;1.00;0.90;;;-2.20;88.50;;;;;;4999671;28;20206;-74
2022/03/01 04:35:54;;;;;;;0.53;0.53;;;-2.20;88.70;;;;;;4992948;28;20192;-73
2022/03/01 04:38:20;;;;;;;0.90;0.90;;;-2.20;88.70;;;;;;4994228;28;20215;-72
2022/03/01 04:40:46;;;;;;;0.33;0.33;;;-2.30;88.70;;;;;;4997080;28;20203;-72
2022/03/01 04:43:12;;;;;;;0.60;0.60;;;-2.30;88.80;;;;;;5000222;28;20189;-72
2022/03/01 04:45:38;;;;;;;1.50;0.93;;;-2.30;88.80;;;;;;4995692;28;20189;-73
2022/03/01 04:48:04;;;;;;;1.27;1.27;;;-2.40;88.90;;;;;;4997681;28;20205;-74
2022/03/01 04:50:30;;;;;;;1.53;0.80;;;-2.40;89.10;;;;;;4996946;28;20183;-73
2022/03/01 04:52:56;;;;;;;2.63;1.13;;;-2.40;89.20;;;;;;4994149;28;20186;-73
2022/03/01 04:55:21;;;;;;;2.00;1.37;;;-2.40;89.50;;;;;;5004247;28;20798;-74
2022/03/01 04:57:47;;;;;;;0.63;0.63;;;-2.40;89.60;;;;;;4999287;28;20233;-73
2022/03/01 05:00:14;;;;;;;2.00;1.17;;;-2.40;89.70;;;;;;4991377;28;20208;-74
2022/03/01 05:02:44;;;;;;;0.70;0.70;;;-2.40;89.70;;;;;;4997038;28;20233;-73
2022/03/01 05:05:11;;;;;;;1.70;1.60;;;-2.40;89.70;;;;;;4989850;28;20186;-72
2022/03/01 05:07:41;;;;;;;2.40;1.20;;;-2.40;89.70;;;;;;4991994;28;20226;-72
2022/03/01 05:10:11;;;;;;;2.00;1.43;;;-2.40;89.70;;;;;;4997542;28;20186;-71
2022/03/01 05:12:41;;;;;;;2.50;1.83;;;-2.50;89.70;;;;;;4996762;28;20190;-75
2022/03/01 05:15:08;;;;;;;2.33;1.60;;;-2.50;89.70;;;;;;4993907;28;20203;-72
2022/03/01 05:17:34;;;;;;;1.20;1.20;;;-2.50;89.80;;;;;;4994048;28;20186;-71
2022/03/01 05:20:01;;;;;;;3.30;1.97;;;-2.50;89.80;;;;;;4997706;28;20791;-71
2022/03/01 05:22:27;;;;;;;1.40;1.33;;;-2.50;89.90;;;;;;4997629;28;20190;-71
2022/03/01 05:24:52;;;;;;;1.10;1.10;;;-2.50;89.90;;;;;;4995875;28;20178;-71
2022/03/01 05:27:18;;;;;;;4.23;1.53;;;-2.50;89.90;;;;;;4994922;28;20357;-70
2022/03/01 05:29:44;;;;;;;2.90;2.23;;;-2.50;89.90;;;;;;4994571;28;20187;-70
2022/03/01 05:32:11;;;;;;;1.87;1.23;;;-2.50;90.00;;;;;;4997383;28;20190;-71
2022/03/01 05:34:38;;;;;;;1.70;1.67;;;-2.40;89.90;;;;;;4996723;28;20339;-72
2022/03/01 05:37:04;;;;;;;1.90;1.80;;;-2.40;89.90;;;;;;4999275;28;20178;-73
2022/03/01 05:39:30;;;;;;;1.63;1.53;;;-2.40;90.00;;;;;;4998504;28;20577;-74
2022/03/01 05:41:56;;;;;;;1.43;1.43;;;-2.30;90.00;;;;;;4993692;28;20195;-72
2022/03/01 05:44:21;;;;;;;1.10;1.10;;;-2.30;90.00;;;;;;4998421;28;20178;-79
2022/03/01 05:46:47;;;;;;;2.73;1.07;;;-2.30;90.00;;;;;;4997410;28;20223;-74
2022/03/01 05:49:13;;;;;;;0.80;0.80;;;-2.20;89.90;;;;;;4995109;28;20262;-72
2022/03/01 05:51:39;;;;;;;1.53;1.03;;;-2.20;90.00;;;;;;4992377;28;20562;-72
2022/03/01 05:54:04;;;;;;;7.90;1.47;;;-2.20;89.90;;;;;;5000532;28;20943;-74
2022/03/01 05:56:30;;;;;;;3.53;1.07;;;-2.20;89.90;;;;;;4995840;28;20182;-73
2022/03/01 05:58:56;;;;;;;1.00;1.00;;;-2.10;89.80;;;;;;4993470;28;20188;-74
2022/03/01 06:01:22;;;;;;;1.47;0.77;;;-2.10;89.70;;;;;;4994481;28;20245;-77
2022/03/01 06:03:48;;;;;;;0.40;0.40;;;-2.10;89.80;;;;;;4997916;28;20203;-74
2022/03/01 06:06:14;;;;;;;1.17;1.10;;;-2.00;89.70;;;;;;4996816;28;20192;-75
2022/03/01 06:08:40;;;;;;;2.23;1.23;;;-2.00;89.30;;;;;;4992408;28;20214;-75
2022/03/01 06:11:06;;;;;;;0.77;0.77;;;-1.90;89.10;;;;;;4999908;28;20245;-75
2022/03/01 06:13:32;;;;;;;0.50;0.40;;;-1.80;88.80;;;;;;4997147;28;20200;-76
2022/03/01 06:16:00;;;;;;;0.87;0.60;;;-1.80;88.50;;;;;;4996389;28;20223;-75
2022/03/01 06:18:26;;;;;;;1.00;1.00;;;-1.70;88.50;;;;;;4997118;28;20184;-74
2022/03/01 06:20:52;;;;;;;0.57;0.57;;;-1.60;88.70;;;;;;4997373;28;20951;-73
2022/03/01 06:23:18;;;;;;;0.43;0.43;;;-1.50;88.20;;;;;;5008793;28;20188;-73
2022/03/01 06:25:45;;;;;;;0.60;0.60;;;-1.40;87.80;;;;;;4996147;28;20189;-74
2022/03/01 06:28:11;;;;;;;0.50;0.50;;;-1.40;87.90;;;;;;4991655;28;20330;-74
2022/03/01 06:30:37;;;;;;;0.87;0.87;;;-1.30;87.80;;;;;;4993874;28;20283;-73
2022/03/01 06:33:04;;;;;;;0.67;0.67;;;-1.20;88.00;;;;;;4990172;28;20184;-74
2022/03/01 06:35:29;;;;;;;0.57;0.57;;;-1.10;88.10;;;;;;4994153;28;20196;-75
2022/03/01 06:37:55;;;;;;;0.73;0.73;;;-1.10;87.90;;;;;;4995533;28;20268;-75
2022/03/01 06:40:21;;;;;;;1.07;1.03;;;-1.00;88.10;;;;;;4989633;28;20185;-76
2022/03/01 06:42:48;;;;;;;1.20;0.60;;;-0.90;87.80;;;;;;4992744;28;20193;-76
2022/03/01 06:45:14;;;;;;;1.63;0.80;;;-0.80;87.00;;;;;;4992045;28;20274;-75
2022/03/01 06:47:40;;;;;;;1.07;1.03;;;-0.70;86.50;;;;;;4993436;28;20225;-76
2022/03/01 06:50:07;;;;;;;0.93;0.80;;;-0.60;86.30;;;;;;4999061;28;20189;-74
2022/03/01 06:52:34;;;;;;;0.50;0.50;;;-0.60;86.20;;;;;;4993938;28;20193;-75
2022/03/01 06:55:05;;;;;;;0.70;0.70;;;-0.50;86.10;;;;;;4998937;28;20268;-75
2022/03/01 06:57:31;;;;;;;1.17;1.17;;;-0.40;86.30;;;;;;4998480;28;20188;-75
2022/03/01 06:59:57;;;;;;;1.03;1.00;;;-0.30;86.30;;;;;;4994973;28;20547;-74
2022/03/01 07:02:26;;;;;;;0.40;0.40;;;-0.10;86.50;;;;;;4995947;28;20246;-74
2022/03/01 07:04:54;;;;;;;0.47;0.47;;;0.00;86.40;;;;;;4996039;28;20195;-74
2022/03/01 07:07:20;;;;;;;0.57;0.57;;;0.10;86.30;;;;;;4996227;28;20317;-75
2022/03/01 07:09:46;;;;;;;2.20;0.80;;;0.20;86.10;;;;;;4993764;28;20185;-75
2022/03/01 07:12:12;;;;;;;0.87;0.87;;;0.30;85.90;;;;;;4991896;28;20190;-74
2022/03/01 07:14:37;;;;;;;1.47;1.37;;;0.40;85.80;;;;;;4993888;28;20192;-75
2022/03/01 07:17:03;;;;;;;1.23;0.67;;;0.50;85.50;;;;;;4993877;28;20974;-75
2022/03/01 07:19:29;;;;;;;0.60;0.60;;;0.60;84.30;;;;;;4993052;28;20185;-76
2022/03/01 07:21:55;;;;;;;2.10;1.00;;;0.70;84.40;;;;;;4993145;28;20189;-74
2022/03/01 07:24:21;;;;;;;3.03;1.20;;;0.80;84.40;;;;;;4988523;28;20320;-75
2022/03/01 07:26:46;;;;;;;0.70;0.70;;;0.80;84.30;;;;;;4990150;28;20229;-75
2022/03/01 07:29:12;;;;;;;0.80;0.80;;;1.00;84.30;;;;;;4995259;28;20189;-76
2022/03/01 07:31:38;;;;;;;0.47;0.47;;;1.10;84.60;;;;;;4989938;28;20659;-75
2022/03/01 07:34:03;;;;;;;2.10;0.80;;;1.30;84.60;;;;;;4997188;28;20580;-75
2022/03/01 07:36:29;;;;;;;0.83;0.83;;;1.40;82.90;;;;;;4993446;28;20185;-76
2022/03/01 07:38:55;;;;;;;0.70;0.70;;;1.40;81.20;;;;;;4991567;28;20188;-76
2022/03/01 07:41:21;;;;;;;1.20;1.10;;;1.50;82.20;;;;;;4991809;28;20189;-76
2022/03/01 07:43:47;;;;;;;3.13;1.37;;;1.70;82.90;;;;;;4992075;28;20182;-75
2022/03/01 07:46:13;;;;;;;0.70;0.70;;;2.00;82.70;;;;;;4994856;28;20193;-74
2022/03/01 07:48:40;;;;;;;1.03;1.03;;;2.40;83.00;;;;;;4992979;28;20354;-74
2022/03/01 07:51:06;;;;;;;0.83;0.83;;;2.80;80.60;;;;;;4993709;28;20185;-72
2022/03/01 07:53:32;;;;;;;1.00;1.00;;;3.20;80.30;;;;;;4994097;28;20180;-74
2022/03/01 07:55:58;;;;;;;0.67;0.67;;;4.00;80.30;;;;;;4990241;28;20196;-74
2022/03/01 07:58:23;;;;;;;0.90;0.90;;;4.70;77.10;;;;;;4996000;28;20181;-75
2022/03/01 08:00:49;;;;;;;1.03;1.03;;;5.40;76.50;;;;;;4997558;28;20201;-75
2022/03/01 08:03:15;;;;;;;1.03;0.93;;;6.30;76.20;;;;;;4995734;28;20189;-74
2022/03/01 08:05:41;;;;;;;2.00;1.30;;;7.30;73.90;;;;;;4992396;28;20363;-75
2022/03/01 08:08:08;;;;;;;0.97;0.97;;;8.10;68.10;;;;;;4996937;28;20331;-75
2022/03/01 08:10:33;;;;;;;1.30;1.30;;;8.40;67.70;;;;;;4996811;28;20629;-75
2022/03/01 08:12:59;;;;;;;1.47;1.37;;;8.70;67.30;;;;;;4998579;28;20316;-75
2022/03/01 08:15:26;;;;;;;2.00;1.83;;;9.20;66.00;;;;;;4999026;28;20263;-74
2022/03/01 08:17:54;;;;;;;2.93;1.73;;;9.50;66.00;;;;;;4995337;28;20676;-75
2022/03/01 08:20:22;;;;;;;1.53;1.50;;;9.80;65.20;;;;;;5000891;28;20220;-75
2022/03/01 08:22:47;;;;;;;4.07;1.70;;;10.10;64.60;;;;;;4998512;28;20786;-73
2022/03/01 08:25:14;;;;;;;2.10;2.00;;;9.80;61.20;;;;;;4994981;28;20182;-74
2022/03/01 08:27:40;;;;;;;2.20;2.00;;;9.80;63.50;;;;;;4996604;28;20213;-75
2022/03/01 08:30:07;;;;;;;1.63;1.63;;;10.00;63.60;;;;;;4996310;28;20185;-74
2022/03/01 08:32:33;;;;;;;2.43;2.30;;;10.10;63.10;;;;;;4996774;28;20852;-74
2022/03/01 08:34:59;;;;;;;1.87;1.77;;;10.40;63.10;;;;;;4997703;28;20190;-74
2022/03/01 08:37:25;;;;;;;2.13;1.93;;;10.80;62.20;;;;;;4997008;28;20706;-74
2022/03/01 08:39:50;;;;;;;1.80;1.80;;;11.10;61.30;;;;;;4993049;28;20197;-74
2022/03/01 08:42:16;;;;;;;1.90;1.80;;;11.20;59.90;;;;;;4995227;28;20178;-74
2022/03/01 08:44:42;;;;;;;1.27;1.27;;;11.30;59.00;;;;;;4997005;28;20192;-75
2022/03/01 08:47:07;;;;;;;1.93;1.93;;;11.50;60.30;;;;;;4995488;28;20209;-74
2022/03/01 08:49:33;;;;;;;1.93;1.73;;;11.80;59.00;;;;;;4997784;28;20204;-74
2022/03/01 08:51:59;;;;;;;2.13;1.93;;;11.60;59.00;;;;;;4994572;28;20180;-74
2022/03/01 08:54:24;;;;;;;1.40;1.40;;;11.30;57.00;;;;;;4999901;28;20181;-74
2022/03/01 08:56:50;;;;;;;1.58;1.55;;;11.60;59.20;;;;;;4996507;28;20200;-74
2022/03/01 08:59:17;;;;;;;1.42;1.42;;;12.20;58.80;;;;;;4994923;28;20608;-74
2022/03/01 09:01:43;;;;;;;1.48;1.38;;;12.60;56.20;;;;;;4997608;28;20235;-75
2022/03/01 09:04:09;;;;;;;1.55;1.50;;;12.90;57.40;;;;;;4995489;28;20655;-74
2022/03/01 09:06:35;;;;;;;1.80;1.70;;;13.40;58.20;;;;;;4992656;28;20194;-74
2022/03/01 09:09:01;;;;;;;1.67;1.63;;;14.10;58.10;;;;;;4996993;28;20185;-74
2022/03/01 09:11:26;;;;;;;1.60;1.50;;;14.90;56.30;;;;;;4996535;28;20284;-75
2022/03/01 09:13:52;;;;;;;3.15;1.85;;;15.70;55.40;;;;;;4998502;28;20280;-74
2022/03/01 09:16:18;;;;;;;2.05;1.85;;;15.70;51.90;;;;;;4994394;28;20651;-74
2022/03/01 09:18:44;;;;;;;1.50;1.40;;;15.90;53.60;;;;;;4992914;28;20193;-75
2022/03/01 09:21:10;;;;;;;1.73;1.60;;;16.20;51.60;;;;;;4996318;28;20711;-74
2022/03/01 09:23:36;;;;;;;1.85;1.83;;;16.10;50.20;;;;;;4992672;28;20194;-75
2022/03/01 09:26:02;;;;;;;1.90;1.80;;;15.80;52.00;;;;;;4993440;28;20189;-74
2022/03/01 09:28:28;;;;;;;2.05;1.90;;;16.30;52.00;;;;;;4992273;28;20224;-75
2022/03/01 09:30:55;;;;;;;1.75;1.67;;;16.60;51.00;;;;;;4994921;28;20185;-75
2022/03/01 09:33:21;;;;;;;1.90;1.80;;;16.90;50.70;;;;;;4996850;28;20251;-75
2022/03/01 09:35:47;;;;;;;1.83;1.73;;;17.50;51.50;;;;;;4998361;28;20275;-75
2022/03/01 09:38:13;;;;;;;2.33;2.22;;;18.10;50.40;;;;;;4996342;28;20272;-74
2022/03/01 09:40:39;;;;;;;2.30;2.20;;;18.30;47.60;;;;;;4993484;28;20734;-74
2022/03/01 09:43:06;;;;;;;1.75;1.65;;;17.10;47.30;;;;;;4992410;28;20178;-74
2022/03/01 09:45:32;;;;;;;2.72;2.45;;;16.50;49.70;;;;;;4995719;28;20200;-74
2022/03/01 09:47:58;;;;;;;1.95;1.85;;;15.50;50.00;;;;;;4993971;28;20232;-74
2022/03/01 09:50:30;;;;;;;3.22;1.98;;;15.00;52.40;;;;;;4994195;28;20294;-74
2022/03/01 09:52:58;;;;;;;2.67;1.90;;;15.20;52.20;;;;;;4994298;28;20196;-74
2022/03/01 09:55:26;;;;;;;1.85;1.85;;;15.40;51.60;;;;;;4992098;28;20185;-74
2022/03/01 09:57:52;;;;;;;2.08;1.98;;;15.40;51.70;;;;;;4993188;28;20186;-73
2022/03/01 10:00:18;;;;;;;2.58;2.47;;;15.00;50.20;;;;;;4992036;28;20912;-73
2022/03/01 10:02:45;;;;;;;4.10;2.42;;;14.20;51.30;;;;;;4993490;28;20264;-73
2022/03/01 10:05:14;;;;;;;2.35;2.25;;;12.80;51.50;;;;;;4992804;28;20196;-74
2022/03/01 10:07:45;;;;;;;1.92;1.73;;;11.70;53.40;;;;;;4992821;28;20248;-74
2022/03/01 10:10:18;;;;;;;2.40;2.30;;;10.40;55.10;;;;;;4991244;28;20181;-74
2022/03/01 10:12:52;;;;;;;1.83;1.83;;;9.40;56.60;;;;;;4994278;28;20189;-74
2022/03/01 10:15:18;;;;;;;2.42;2.22;;;8.50;58.20;;;;;;4992152;28;20552;-74
2022/03/01 10:17:46;;;;;;;2.13;2.03;;;8.10;59.00;;;;;;4992255;28;20281;-74
2022/03/01 10:20:18;;;;;;;1.90;1.90;;;7.60;60.20;;;;;;4993636;28;20227;-74
2022/03/01 10:22:50;;;;;;;1.43;1.43;;;7.10;61.30;;;;;;4991809;28;20531;-73
2022/03/01 10:25:19;;;;;;;3.07;1.53;;;6.80;61.40;;;;;;4991357;28;20197;-74
2022/03/01 10:27:46;;;;;;;1.63;1.60;;;6.50;62.10;;;;;;4992365;28;20225;-74
2022/03/01 10:30:22;;;;;;;1.83;1.73;;;6.10;63.60;;;;;;4990662;28;20194;-74
2022/03/01 10:32:48;;;;;;;1.20;1.20;;;6.00;63.90;;;;;;4992652;28;20745;-73
2022/03/01 10:35:14;;;;;;;1.47;1.47;;;6.10;65.30;;;;;;4992295;28;21682;-74
2022/03/01 10:37:41;;;;;;;1.77;1.67;;;6.10;65.00;;;;;;4993555;28;20748;-74
2022/03/01 10:40:18;;;;;;;7.63;1.77;;;6.20;65.50;;;;;;4991123;28;20567;-74
2022/03/01 10:42:44;;;;;;;11.23;1.63;;;6.30;66.10;;;;;;4992752;28;20195;-74
2022/03/01 10:45:12;;;;;;;2.30;2.13;;;6.40;65.90;;;;;;4989955;28;20628;-74
2022/03/01 10:47:39;;;;;;;2.60;2.20;;;6.50;66.50;;;;;;4991877;28;20307;-74
2022/03/01 10:50:09;;;;;;;6.93;1.90;;;6.50;66.60;;;;;;4992489;28;20208;-74
2022/03/01 10:52:39;;;;;;;1.27;1.27;;;6.70;66.60;;;;;;4993292;28;20193;-74
2022/03/01 10:55:07;;;;;;;2.07;1.90;;;7.00;66.50;;;;;;4993427;28;20945;-73
2022/03/01 10:57:33;;;;;;;2.47;2.27;;;7.40;66.10;;;;;;4993263;28;20271;-73
2022/03/01 10:59:58;;;;;;;2.37;1.77;;;8.00;65.20;;;;;;4992898;28;20185;-73
2022/03/01 11:02:24;;;;;;;1.80;1.70;;;8.40;64.40;;;;;;4994268;28;20177;-74
2022/03/01 11:04:51;;;;;;;2.57;2.47;;;8.90;63.20;;;;;;4991940;28;20182;-73
2022/03/01 11:07:19;;;;;;;1.97;1.87;;;9.20;62.60;;;;;;4991509;28;20220;-73
2022/03/01 11:09:45;;;;;;;2.00;1.90;;;9.30;61.70;;;;;;4992398;28;20193;-73
2022/03/01 11:12:12;;;;;;;2.03;1.90;;;9.40;61.50;;;;;;4991861;28;20174;-74
2022/03/01 11:14:54;;;;;;;3.10;2.33;;;9.50;61.00;;;;;;4993997;28;20196;-73
2022/03/01 11:17:38;;;;;;;1.97;1.87;;;9.50;60.50;;;;;;4995119;28;20201;-74
2022/03/01 11:20:15;;;;;;;2.07;1.77;;;9.40;60.60;;;;;;4995814;28;20209;-73
2022/03/01 11:22:41;;;;;;;1.80;1.70;;;9.30;60.30;;;;;;4993581;28;20197;-73
2022/03/01 11:25:17;;;;;;;2.30;2.00;;;9.10;60.30;;;;;;4992154;28;20189;-73
2022/03/01 11:27:48;;;;;;;1.67;1.53;;;9.00;60.50;;;;;;4994684;28;20307;-74
2022/03/01 11:30:15;;;;;;;1.70;1.60;;;8.70;60.60;;;;;;4990813;28;20196;-73
2022/03/01 11:32:44;;;;;;;2.30;2.13;;;8.50;60.90;;;;;;4994486;28;20267;-74
2022/03/01 11:35:25;;;;;;;1.93;1.83;;;8.30;61.40;;;;;;4991650;28;20873;-73
2022/03/01 11:38:13;;;;;;;2.17;1.93;;;8.10;62.00;;;;;;4994027;28;20209;-73
2022/03/01 11:40:47;;;;;;;2.10;2.00;;;7.80;61.80;;;;;;4992198;28;20320;-73
2022/03/01 11:43:16;;;;;;;1.70;1.57;;;7.60;62.20;;;;;;4991798;28;20908;-75
2022/03/01 11:45:54;;;;;;;2.90;1.73;;;7.50;62.90;;;;;;4990595;28;20208;-73
2022/03/01 11:48:26;;;;;;;2.37;2.17;;;7.40;63.10;;;;;;4994453;28;20220;-74
2022/03/01 11:50:56;;;;;;;2.37;2.27;;;7.30;63.10;;;;;;4994981;28;20193;-74
2022/03/01 11:53:24;;;;;;;2.30;2.10;;;7.20;63.30;;;;;;4993064;28;20192;-73
2022/03/01 11:55:53;;;;;;;2.20;2.10;;;7.10;63.80;;;;;;4992950;28;20177;-73
2022/03/01 11:58:20;;;;;;;1.70;1.63;;;7.10;63.70;;;;;;4992823;28;20270;-74
2022/03/01 12:00:47;;;;;;;2.10;2.00;;;7.00;63.60;;;;;;4992902;28;20185;-73
2022/03/01 12:03:19;;;;;;;6.03;1.97;;;6.90;64.00;;;;;;4991260;28;20181;-73
2022/03/01 12:05:47;;;;;;;2.13;1.97;;;6.80;63.90;;;;;;4993273;28;20185;-73
2022/03/01 12:08:15;;;;;;;1.70;1.60;;;6.60;63.80;;;;;;4998632;28;20674;-73
2022/03/01 12:11:04;;;;;;;1.97;1.87;;;6.50;64.10;;;;;;4991385;28;20178;-74
2022/03/01 12:13:39;;;;;;;1.73;1.60;;;6.30;64.50;;;;;;4991323;28;20181;-73
2022/03/01 12:16:06;;;;;;;2.50;1.80;;;6.10;65.10;;;;;;4990676;28;20217;-73
2022/03/01 12:18:37;;;;;;;2.03;1.83;;;6.00;65.30;;;;;;4991594;28;20785;-74
2022/03/01 12:21:10;;;;;;;1.57;1.57;;;5.80;65.70;;;;;;4990496;28;20192;-74
2022/03/01 12:23:38;;;;;;;1.67;1.30;;;5.70;65.90;;;;;;4991862;28;20182;-73
2022/03/01 12:26:05;;;;;;;1.80;1.47;;;5.60;66.40;;;;;;4988452;28;20185;-72
2022/03/01 12:28:43;;;;;;;1.50;1.50;;;5.50;66.40;;;;;;4990357;28;20228;-74
2022/03/01 12:31:13;;;;;;;1.67;1.57;;;5.30;66.40;;;;;;4992635;28;20538;-74
2022/03/01 12:34:02;;;;;;;1.77;1.67;;;5.20;66.80;;;;;;4991288;28;20408;-74
2022/03/01 12:36:34;;;;;;;1.80;1.50;;;5.20;67.10;;;;;;4988173;28;20272;-74
2022/03/01 12:39:04;;;;;;;1.10;1.10;;;5.20;67.20;;;;;;4995093;28;20275;-74
2022/03/01 12:41:31;;;;;;;1.90;1.83;;;5.20;67.20;;;;;;4991657;28;20186;-75
2022/03/01 12:43:59;;;;;;;1.77;1.53;;;5.20;67.20;;;;;;4989749;28;20186;-74
2022/03/01 12:46:27;;;;;;;1.70;1.60;;;5.20;67.30;;;;;;4988532;28;20197;-74
2022/03/01 12:48:54;;;;;;;1.20;1.20;;;5.20;67.30;;;;;;4990750;28;20275;-74
2022/03/01 12:51:22;;;;;;;1.17;1.10;;;5.20;67.30;;;;;;4988475;28;20273;-75